sensor_id;sensor_type;location;lat;lon;timestamp;pressure;altitude;pressure_sealevel;temperature;humidity
75549;BME280;64133;56.002;37.208;2023-05-14T00:02:08;99685.16;;;11.30;51.90
75549;BME280;64133;56.002;37.208;2023-05-14T00:07:13;99687.82;;;11.19;52.24
75549;BME280;64133;56.002;37.208;2023-05-14T00:12:18;99686.36;;;11.10;52.63
75549;BME280;64133;56.002;37.208;2023-05-14T00:17:22;99689.63;;;11.02;52.87
75549;BME280;64133;56.002;37.208;2023-05-14T00:22:27;99686.63;;;10.95;53.22
75549;BME280;64133;56.002;37.208;2023-05-14T00:27:32;99684.83;;;10.90;53.50
75549;BME280;64133;56.002;37.208;2023-05-14T00:32:36;99687.45;;;10.79;53.77
75549;BME280;64133;56.002;37.208;2023-05-14T00:37:41;99683.73;;;10.70;54.21
75549;BME280;64133;56.002;37.208;2023-05-14T00:42:46;99693.08;;;10.63;54.49
75549;BME280;64133;56.002;37.208;2023-05-14T00:47:50;99687.56;;;10.55;54.62
75549;BME280;64133;56.002;37.208;2023-05-14T00:52:55;99691.34;;;10.40;55.32
75549;BME280;64133;56.002;37.208;2023-05-14T00:57:59;99694.81;;;10.35;55.45
75549;BME280;64133;56.002;37.208;2023-05-14T01:03:04;99693.36;;;10.30;55.78
75549;BME280;64133;56.002;37.208;2023-05-14T01:08:11;99700.73;;;10.20;56.03
75549;BME280;64133;56.002;37.208;2023-05-14T01:13:15;99702.40;;;10.15;56.37
75549;BME280;64133;56.002;37.208;2023-05-14T01:23:42;99709.33;;;10.16;56.66
75549;BME280;64133;56.002;37.208;2023-05-14T01:29:02;99714.82;;;10.13;56.83
75549;BME280;64133;56.002;37.208;2023-05-14T01:34:08;99705.23;;;10.06;56.88
75549;BME280;64133;56.002;37.208;2023-05-14T01:39:13;99710.59;;;10.05;57.04
75549;BME280;64133;56.002;37.208;2023-05-14T01:44:18;99710.25;;;10.10;57.08
75549;BME280;64133;56.002;37.208;2023-05-14T01:49:22;99718.05;;;10.11;57.27
75549;BME280;64133;56.002;37.208;2023-05-14T01:54:27;99726.45;;;10.16;57.27
75549;BME280;64133;56.002;37.208;2023-05-14T01:59:32;99725.05;;;10.23;57.29
75549;BME280;64133;56.002;37.208;2023-05-14T02:04:36;99730.01;;;10.34;57.13
75549;BME280;64133;56.002;37.208;2023-05-14T02:09:41;99728.60;;;10.41;57.08
75549;BME280;64133;56.002;37.208;2023-05-14T02:14:45;99733.75;;;10.53;56.84
75549;BME280;64133;56.002;37.208;2023-05-14T02:19:50;99734.02;;;10.56;56.76
75549;BME280;64133;56.002;37.208;2023-05-14T02:24:55;99736.52;;;10.52;56.51
75549;BME280;64133;56.002;37.208;2023-05-14T02:30:00;99746.92;;;10.48;56.67
75549;BME280;64133;56.002;37.208;2023-05-14T02:35:05;99755.31;;;10.53;56.41
75549;BME280;64133;56.002;37.208;2023-05-14T02:40:11;99753.64;;;10.57;56.23
75549;BME280;64133;56.002;37.208;2023-05-14T02:45:16;99761.10;;;10.64;56.26
75549;BME280;64133;56.002;37.208;2023-05-14T02:50:20;99757.86;;;10.66;56.12
75549;BME280;64133;56.002;37.208;2023-05-14T02:55:25;99759.95;;;10.85;55.84
75549;BME280;64133;56.002;37.208;2023-05-14T03:00:29;99762.84;;;10.93;55.50
75549;BME280;64133;56.002;37.208;2023-05-14T03:05:34;99762.25;;;11.06;55.15
75549;BME280;64133;56.002;37.208;2023-05-14T03:10:39;99762.58;;;10.96;55.30
75549;BME280;64133;56.002;37.208;2023-05-14T03:15:43;99766.33;;;11.10;55.29
75549;BME280;64133;56.002;37.208;2023-05-14T03:20:48;99769.66;;;11.51;54.36
75549;BME280;64133;56.002;37.208;2023-05-14T03:25:53;99769.27;;;11.90;53.63
75549;BME280;64133;56.002;37.208;2023-05-14T03:30:57;99771.53;;;13.10;51.23
75549;BME280;64133;56.002;37.208;2023-05-14T03:36:02;99762.88;;;22.54;38.53
75549;BME280;64133;56.002;37.208;2023-05-14T03:41:07;99769.75;;;28.23;28.51
75549;BME280;64133;56.002;37.208;2023-05-14T03:46:11;99774.64;;;29.21;25.51
75549;BME280;64133;56.002;37.208;2023-05-14T03:51:16;99780.84;;;29.97;24.61
75549;BME280;64133;56.002;37.208;2023-05-14T03:56:21;99785.70;;;30.69;22.40
75549;BME280;64133;56.002;37.208;2023-05-14T04:01:25;99786.28;;;29.97;22.50
75549;BME280;64133;56.002;37.208;2023-05-14T04:06:30;99789.54;;;30.40;21.47
75549;BME280;64133;56.002;37.208;2023-05-14T04:11:35;99784.91;;;31.24;20.44
75549;BME280;64133;56.002;37.208;2023-05-14T04:16:39;99789.46;;;32.53;19.22
75549;BME280;64133;56.002;37.208;2023-05-14T04:21:44;99795.60;;;34.31;17.57
75549;BME280;64133;56.002;37.208;2023-05-14T04:26:48;99798.05;;;34.12;17.38
75549;BME280;64133;56.002;37.208;2023-05-14T04:31:53;99795.64;;;37.10;14.54
75549;BME280;64133;56.002;37.208;2023-05-14T04:36:58;99789.59;;;35.28;15.40
75549;BME280;64133;56.002;37.208;2023-05-14T04:42:03;99793.70;;;38.42;13.48
75549;BME280;64133;56.002;37.208;2023-05-14T04:47:07;99791.53;;;40.01;12.02
75549;BME280;64133;56.002;37.208;2023-05-14T04:52:12;99795.56;;;38.95;12.33
75549;BME280;64133;56.002;37.208;2023-05-14T04:57:17;99801.39;;;37.35;12.87
75549;BME280;64133;56.002;37.208;2023-05-14T05:02:21;99793.34;;;38.81;11.52
75549;BME280;64133;56.002;37.208;2023-05-14T05:07:26;99793.39;;;39.91;10.53
75549;BME280;64133;56.002;37.208;2023-05-14T05:12:31;99801.77;;;37.98;11.74
75549;BME280;64133;56.002;37.208;2023-05-14T05:17:35;99797.50;;;38.95;11.21
75549;BME280;64133;56.002;37.208;2023-05-14T05:22:40;99804.31;;;42.52;9.23
75549;BME280;64133;56.002;37.208;2023-05-14T05:27:45;99800.88;;;39.36;10.65
75549;BME280;64133;56.002;37.208;2023-05-14T05:32:49;99806.76;;;42.36;8.65
75549;BME280;64133;56.002;37.208;2023-05-14T05:37:54;99802.09;;;44.13;7.63
75549;BME280;64133;56.002;37.208;2023-05-14T05:42:58;99797.23;;;42.31;8.28
75549;BME280;64133;56.002;37.208;2023-05-14T05:48:04;99793.88;;;42.40;8.26
75549;BME280;64133;56.002;37.208;2023-05-14T05:53:08;99789.18;;;38.84;9.36
75549;BME280;64133;56.002;37.208;2023-05-14T05:58:14;99781.66;;;41.89;8.24
75549;BME280;64133;56.002;37.208;2023-05-14T06:03:21;99782.27;;;44.62;7.03
75549;BME280;64133;56.002;37.208;2023-05-14T06:08:26;99783.42;;;41.28;8.19
75549;BME280;64133;56.002;37.208;2023-05-14T06:13:34;99777.67;;;35.68;11.04
75549;BME280;64133;56.002;37.208;2023-05-14T06:18:38;99780.50;;;36.10;11.09
75549;BME280;64133;56.002;37.208;2023-05-14T06:23:43;99776.59;;;38.78;9.86
75549;BME280;64133;56.002;37.208;2023-05-14T06:28:48;99767.68;;;34.00;11.91
75549;BME280;64133;56.002;37.208;2023-05-14T06:33:52;99771.87;;;25.17;18.33
75549;BME280;64133;56.002;37.208;2023-05-14T06:38:57;99770.75;;;22.45;21.23
75549;BME280;64133;56.002;37.208;2023-05-14T06:44:02;99773.91;;;21.36;22.82
75549;BME280;64133;56.002;37.208;2023-05-14T06:49:06;99771.27;;;21.72;23.28
75549;BME280;64133;56.002;37.208;2023-05-14T06:54:11;99777.81;;;21.58;23.16
75549;BME280;64133;56.002;37.208;2023-05-14T06:59:15;99780.75;;;21.04;23.63
75549;BME280;64133;56.002;37.208;2023-05-14T07:04:20;99784.12;;;20.15;25.27
75549;BME280;64133;56.002;37.208;2023-05-14T07:09:25;99785.22;;;20.74;25.16
75549;BME280;64133;56.002;37.208;2023-05-14T07:14:29;99785.03;;;21.73;24.57
75549;BME280;64133;56.002;37.208;2023-05-14T07:19:34;99789.64;;;22.79;23.30
75549;BME280;64133;56.002;37.208;2023-05-14T07:24:39;99792.51;;;24.87;21.17
75549;BME280;64133;56.002;37.208;2023-05-14T07:29:44;99794.49;;;25.09;21.10
75549;BME280;64133;56.002;37.208;2023-05-14T07:34:48;99802.71;;;23.39;22.63
75549;BME280;64133;56.002;37.208;2023-05-14T07:39:53;99799.31;;;22.74;23.38
75549;BME280;64133;56.002;37.208;2023-05-14T07:44:58;99801.30;;;22.33;24.04
75549;BME280;64133;56.002;37.208;2023-05-14T07:50:02;99800.53;;;23.55;23.18
75549;BME280;64133;56.002;37.208;2023-05-14T07:55:08;99810.16;;;35.15;14.71
75549;BME280;64133;56.002;37.208;2023-05-14T08:00:14;99811.47;;;26.55;19.47
75549;BME280;64133;56.002;37.208;2023-05-14T08:05:19;99811.36;;;24.17;22.11
75549;BME280;64133;56.002;37.208;2023-05-14T08:10:24;99819.34;;;24.27;22.05
75549;BME280;64133;56.002;37.208;2023-05-14T08:15:28;99829.92;;;22.00;24.48
75549;BME280;64133;56.002;37.208;2023-05-14T08:20:33;99823.20;;;22.15;24.85
75549;BME280;64133;56.002;37.208;2023-05-14T08:25:38;99818.64;;;24.87;22.06
75549;BME280;64133;56.002;37.208;2023-05-14T08:30:42;99817.48;;;23.91;22.95
75549;BME280;64133;56.002;37.208;2023-05-14T08:35:48;99812.34;;;28.55;18.71
75549;BME280;64133;56.002;37.208;2023-05-14T08:40:53;99815.12;;;26.36;20.04
75549;BME280;64133;56.002;37.208;2023-05-14T08:45:58;99735.75;;;21.33;24.62
75549;BME280;64133;56.002;37.208;2023-05-14T08:51:02;99819.75;;;20.11;27.11
75549;BME280;64133;56.002;37.208;2023-05-14T08:56:07;99824.65;;;20.62;27.16
75549;BME280;64133;56.002;37.208;2023-05-14T09:01:11;99821.62;;;20.65;27.28
75549;BME280;64133;56.002;37.208;2023-05-14T09:06:16;99812.82;;;21.27;26.68
75549;BME280;64133;56.002;37.208;2023-05-14T09:11:21;99817.04;;;21.60;26.44
75549;BME280;64133;56.002;37.208;2023-05-14T09:21:40;99823.42;;;21.06;27.39
75549;BME280;64133;56.002;37.208;2023-05-14T09:26:48;99817.67;;;21.62;26.76
75549;BME280;64133;56.002;37.208;2023-05-14T09:31:51;99809.67;;;21.09;27.47
75549;BME280;64133;56.002;37.208;2023-05-14T09:36:56;99819.71;;;20.19;28.68
75549;BME280;64133;56.002;37.208;2023-05-14T09:42:01;99819.91;;;18.45;30.55
75549;BME280;64133;56.002;37.208;2023-05-14T09:47:05;99819.61;;;18.89;30.12
75549;BME280;64133;56.002;37.208;2023-05-14T09:52:10;99811.78;;;18.88;30.13
75549;BME280;64133;56.002;37.208;2023-05-14T09:57:15;99809.56;;;19.79;29.70
75549;BME280;64133;56.002;37.208;2023-05-14T10:02:22;99806.84;;;19.36;29.72
75549;BME280;64133;56.002;37.208;2023-05-14T10:07:28;99801.89;;;20.12;28.76
75549;BME280;64133;56.002;37.208;2023-05-14T10:12:34;99811.96;;;21.90;26.93
75549;BME280;64133;56.002;37.208;2023-05-14T10:17:37;99805.39;;;21.38;26.89
75549;BME280;64133;56.002;37.208;2023-05-14T10:22:41;99796.80;;;21.68;26.12
75549;BME280;64133;56.002;37.208;2023-05-14T10:27:46;99794.52;;;22.58;25.10
75549;BME280;64133;56.002;37.208;2023-05-14T10:33:05;99796.28;;;21.43;26.13
75549;BME280;64133;56.002;37.208;2023-05-14T10:38:09;99806.80;;;20.77;26.82
75549;BME280;64133;56.002;37.208;2023-05-14T10:43:14;99799.15;;;21.22;26.25
75549;BME280;64133;56.002;37.208;2023-05-14T10:48:19;99794.16;;;21.38;25.98
75549;BME280;64133;56.002;37.208;2023-05-14T10:53:34;99789.36;;;21.74;25.84
75549;BME280;64133;56.002;37.208;2023-05-14T10:58:40;99784.77;;;22.04;25.22
75549;BME280;64133;56.002;37.208;2023-05-14T11:03:44;99787.20;;;21.58;25.54
75549;BME280;64133;56.002;37.208;2023-05-14T11:08:48;99786.67;;;21.33;25.30
75549;BME280;64133;56.002;37.208;2023-05-14T11:13:53;99790.95;;;21.20;25.38
75549;BME280;64133;56.002;37.208;2023-05-14T11:19:02;99785.40;;;21.06;25.64
75549;BME280;64133;56.002;37.208;2023-05-14T11:24:07;99774.95;;;21.45;25.10
75549;BME280;64133;56.002;37.208;2023-05-14T11:29:12;99774.60;;;20.39;26.45
75549;BME280;64133;56.002;37.208;2023-05-14T11:34:16;99781.83;;;19.76;27.72
75549;BME280;64133;56.002;37.208;2023-05-14T11:39:21;99782.91;;;18.99;28.71
75549;BME280;64133;56.002;37.208;2023-05-14T11:44:26;99786.16;;;19.38;29.14
75549;BME280;64133;56.002;37.208;2023-05-14T11:49:30;99785.56;;;19.63;28.77
75549;BME280;64133;56.002;37.208;2023-05-14T11:54:35;99784.14;;;19.36;28.71
75549;BME280;64133;56.002;37.208;2023-05-14T11:59:40;99771.87;;;19.62;28.52
75549;BME280;64133;56.002;37.208;2023-05-14T12:04:48;99776.27;;;19.47;29.16
75549;BME280;64133;56.002;37.208;2023-05-14T12:09:49;99775.63;;;19.80;28.96
75549;BME280;64133;56.002;37.208;2023-05-14T12:14:54;99770.77;;;18.76;29.84
75549;BME280;64133;56.002;37.208;2023-05-14T12:19:58;99763.73;;;18.75;30.12
75549;BME280;64133;56.002;37.208;2023-05-14T12:25:04;99768.50;;;20.03;28.82
75549;BME280;64133;56.002;37.208;2023-05-14T12:30:10;99769.64;;;19.78;28.49
75549;BME280;64133;56.002;37.208;2023-05-14T12:35:14;99770.66;;;20.04;28.17
75549;BME280;64133;56.002;37.208;2023-05-14T12:40:19;99760.90;;;20.38;27.81
75549;BME280;64133;56.002;37.208;2023-05-14T12:45:24;99760.55;;;19.91;28.19
75549;BME280;64133;56.002;37.208;2023-05-14T12:50:29;99768.59;;;19.44;28.82
75549;BME280;64133;56.002;37.208;2023-05-14T12:55:33;99757.97;;;19.71;28.68
75549;BME280;64133;56.002;37.208;2023-05-14T13:00:38;99760.59;;;19.40;29.31
75549;BME280;64133;56.002;37.208;2023-05-14T13:05:43;99757.96;;;19.23;29.37
75549;BME280;64133;56.002;37.208;2023-05-14T13:10:47;99763.22;;;18.39;30.76
75549;BME280;64133;56.002;37.208;2023-05-14T13:15:52;99757.06;;;18.47;30.94
75549;BME280;64133;56.002;37.208;2023-05-14T13:20:57;99765.57;;;18.75;30.65
75549;BME280;64133;56.002;37.208;2023-05-14T13:26:02;99767.89;;;18.53;31.00
75549;BME280;64133;56.002;37.208;2023-05-14T13:31:07;99768.36;;;19.06;30.68
75549;BME280;64133;56.002;37.208;2023-05-14T13:36:12;99765.06;;;18.83;30.63
75549;BME280;64133;56.002;37.208;2023-05-14T13:41:16;99771.89;;;18.57;31.68
75549;BME280;64133;56.002;37.208;2023-05-14T13:46:21;99776.60;;;17.80;32.56
75549;BME280;64133;56.002;37.208;2023-05-14T13:51:25;99774.20;;;18.24;32.36
75549;BME280;64133;56.002;37.208;2023-05-14T13:56:30;99775.21;;;18.27;32.18
75549;BME280;64133;56.002;37.208;2023-05-14T14:01:35;99775.78;;;17.84;32.63
75549;BME280;64133;56.002;37.208;2023-05-14T14:06:39;99771.87;;;18.13;32.37
75549;BME280;64133;56.002;37.208;2023-05-14T14:11:44;99775.67;;;17.94;32.46
75549;BME280;64133;56.002;37.208;2023-05-14T14:16:49;99778.63;;;17.48;33.23
75549;BME280;64133;56.002;37.208;2023-05-14T14:21:53;99781.00;;;17.94;33.06
75549;BME280;64133;56.002;37.208;2023-05-14T14:26:58;99775.07;;;17.36;33.85
75549;BME280;64133;56.002;37.208;2023-05-14T14:32:03;99774.57;;;17.06;34.60
75549;BME280;64133;56.002;37.208;2023-05-14T14:37:07;99771.88;;;17.02;34.81
75549;BME280;64133;56.002;37.208;2023-05-14T14:42:12;99773.66;;;16.93;35.13
75549;BME280;64133;56.002;37.208;2023-05-14T14:47:17;99767.47;;;17.15;34.90
75549;BME280;64133;56.002;37.208;2023-05-14T14:52:21;99770.17;;;17.23;35.07
75549;BME280;64133;56.002;37.208;2023-05-14T14:57:26;99771.67;;;17.21;34.57
75549;BME280;64133;56.002;37.208;2023-05-14T15:02:31;99770.91;;;17.03;34.84
75549;BME280;64133;56.002;37.208;2023-05-14T15:07:36;99763.64;;;17.13;34.57
75549;BME280;64133;56.002;37.208;2023-05-14T15:12:40;99763.72;;;16.73;34.92
75549;BME280;64133;56.002;37.208;2023-05-14T15:17:45;99763.09;;;16.40;35.74
75549;BME280;64133;56.002;37.208;2023-05-14T15:22:50;99761.60;;;16.23;36.08
75549;BME280;64133;56.002;37.208;2023-05-14T15:27:54;99765.21;;;16.00;36.49
75549;BME280;64133;56.002;37.208;2023-05-14T15:32:59;99766.88;;;15.70;37.27
75549;BME280;64133;56.002;37.208;2023-05-14T15:38:03;99760.59;;;15.61;37.56
75549;BME280;64133;56.002;37.208;2023-05-14T15:43:08;99756.83;;;15.50;37.56
75549;BME280;64133;56.002;37.208;2023-05-14T15:48:13;99756.41;;;15.68;37.46
75549;BME280;64133;56.002;37.208;2023-05-14T15:53:17;99753.34;;;16.08;37.13
75549;BME280;64133;56.002;37.208;2023-05-14T15:58:22;99759.20;;;15.80;37.47
75549;BME280;64133;56.002;37.208;2023-05-14T16:03:27;99759.19;;;15.67;37.86
75549;BME280;64133;56.002;37.208;2023-05-14T16:08:31;99757.03;;;15.66;37.95
75549;BME280;64133;56.002;37.208;2023-05-14T16:13:36;99762.27;;;15.62;38.19
75549;BME280;64133;56.002;37.208;2023-05-14T16:18:41;99762.13;;;15.64;38.10
75549;BME280;64133;56.002;37.208;2023-05-14T16:23:45;99760.83;;;15.54;38.30
75549;BME280;64133;56.002;37.208;2023-05-14T16:28:50;99758.45;;;15.47;38.33
75549;BME280;64133;56.002;37.208;2023-05-14T16:33:55;99758.56;;;15.18;38.79
75549;BME280;64133;56.002;37.208;2023-05-14T16:39:00;99764.42;;;15.21;38.86
75549;BME280;64133;56.002;37.208;2023-05-14T16:44:04;99763.66;;;14.68;39.65
75549;BME280;64133;56.002;37.208;2023-05-14T16:49:09;99761.14;;;14.57;39.67
75549;BME280;64133;56.002;37.208;2023-05-14T16:54:14;99776.06;;;14.39;40.23
75549;BME280;64133;56.002;37.208;2023-05-14T16:59:18;99769.08;;;14.08;40.79
75549;BME280;64133;56.002;37.208;2023-05-14T17:04:23;99776.78;;;13.87;41.44
75549;BME280;64133;56.002;37.208;2023-05-14T17:09:29;99779.73;;;13.93;41.41
75549;BME280;64133;56.002;37.208;2023-05-14T17:14:33;99787.36;;;13.77;41.91
75549;BME280;64133;56.002;37.208;2023-05-14T17:19:38;99785.94;;;13.48;42.62
75549;BME280;64133;56.002;37.208;2023-05-14T17:24:43;99786.48;;;13.26;42.88
75549;BME280;64133;56.002;37.208;2023-05-14T17:29:47;99793.38;;;13.02;43.31
75549;BME280;64133;56.002;37.208;2023-05-14T17:34:52;99798.23;;;12.92;43.37
75549;BME280;64133;56.002;37.208;2023-05-14T17:39:57;99803.13;;;12.75;43.67
75549;BME280;64133;56.002;37.208;2023-05-14T17:45:02;99808.42;;;12.49;44.52
75549;BME280;64133;56.002;37.208;2023-05-14T17:50:08;99810.78;;;12.37;44.80
75549;BME280;64133;56.002;37.208;2023-05-14T17:55:13;99811.53;;;12.22;45.18
75549;BME280;64133;56.002;37.208;2023-05-14T18:00:18;99818.92;;;12.07;45.48
75549;BME280;64133;56.002;37.208;2023-05-14T18:05:23;99814.84;;;12.03;45.48
75549;BME280;64133;56.002;37.208;2023-05-14T18:10:28;99814.39;;;11.87;45.97
75549;BME280;64133;56.002;37.208;2023-05-14T18:15:32;99821.20;;;11.78;46.25
75549;BME280;64133;56.002;37.208;2023-05-14T18:20:37;99817.98;;;11.69;46.57
75549;BME280;64133;56.002;37.208;2023-05-14T18:25:42;99822.32;;;11.58;46.92
75549;BME280;64133;56.002;37.208;2023-05-14T18:30:46;99831.05;;;11.53;47.04
75549;BME280;64133;56.002;37.208;2023-05-14T18:35:52;99822.55;;;11.39;47.39
75549;BME280;64133;56.002;37.208;2023-05-14T18:40:56;99825.91;;;11.29;47.68
75549;BME280;64133;56.002;37.208;2023-05-14T18:46:01;99823.85;;;11.22;48.24
75549;BME280;64133;56.002;37.208;2023-05-14T18:51:06;99824.47;;;11.20;48.38
75549;BME280;64133;56.002;37.208;2023-05-14T18:56:14;99820.83;;;11.10;48.92
75549;BME280;64133;56.002;37.208;2023-05-14T19:01:15;99830.67;;;11.02;49.35
75549;BME280;64133;56.002;37.208;2023-05-14T19:06:20;99822.73;;;10.96;49.23
75549;BME280;64133;56.002;37.208;2023-05-14T19:11:25;99819.26;;;10.90;49.34
75549;BME280;64133;56.002;37.208;2023-05-14T19:16:29;99823.65;;;10.78;49.90
75549;BME280;64133;56.002;37.208;2023-05-14T19:21:37;99825.79;;;10.68;50.59
75549;BME280;64133;56.002;37.208;2023-05-14T19:26:44;99833.30;;;10.61;50.69
75549;BME280;64133;56.002;37.208;2023-05-14T19:31:48;99829.20;;;10.57;50.87
75549;BME280;64133;56.002;37.208;2023-05-14T19:36:53;99842.98;;;10.55;50.99
75549;BME280;64133;56.002;37.208;2023-05-14T19:41:58;99838.97;;;10.44;51.31
75549;BME280;64133;56.002;37.208;2023-05-14T19:47:02;99833.33;;;10.37;51.57
75549;BME280;64133;56.002;37.208;2023-05-14T19:52:07;99828.18;;;10.23;52.45
75549;BME280;64133;56.002;37.208;2023-05-14T19:57:12;99834.12;;;10.14;53.22
75549;BME280;64133;56.002;37.208;2023-05-14T20:02:16;99836.46;;;10.05;53.79
75549;BME280;64133;56.002;37.208;2023-05-14T20:07:21;99831.38;;;9.97;54.46
75549;BME280;64133;56.002;37.208;2023-05-14T20:12:26;99835.16;;;9.87;54.92
75549;BME280;64133;56.002;37.208;2023-05-14T20:17:31;99831.39;;;9.78;55.10
75549;BME280;64133;56.002;37.208;2023-05-14T20:22:35;99832.41;;;9.70;55.56
75549;BME280;64133;56.002;37.208;2023-05-14T20:27:41;99835.21;;;9.62;56.02
75549;BME280;64133;56.002;37.208;2023-05-14T20:32:45;99837.45;;;9.55;56.37
75549;BME280;64133;56.002;37.208;2023-05-14T20:37:50;99839.65;;;9.48;56.73
75549;BME280;64133;56.002;37.208;2023-05-14T20:42:54;99833.20;;;9.34;57.37
75549;BME280;64133;56.002;37.208;2023-05-14T20:47:59;99831.09;;;9.26;57.84
75549;BME280;64133;56.002;37.208;2023-05-14T20:53:04;99829.62;;;9.22;58.17
75549;BME280;64133;56.002;37.208;2023-05-14T20:58:08;99831.48;;;9.15;58.66
75549;BME280;64133;56.002;37.208;2023-05-14T21:03:14;99835.27;;;9.11;58.99
75549;BME280;64133;56.002;37.208;2023-05-14T21:08:19;99836.66;;;9.09;59.12
75549;BME280;64133;56.002;37.208;2023-05-14T21:13:24;99838.30;;;9.04;59.29
75549;BME280;64133;56.002;37.208;2023-05-14T21:18:29;99844.54;;;8.96;59.51
75549;BME280;64133;56.002;37.208;2023-05-14T21:23:34;99840.07;;;8.91;59.78
75549;BME280;64133;56.002;37.208;2023-05-14T21:28:38;99836.87;;;8.80;60.23
75549;BME280;64133;56.002;37.208;2023-05-14T21:33:43;99833.71;;;8.75;60.63
75549;BME280;64133;56.002;37.208;2023-05-14T21:38:48;99836.36;;;8.68;60.93
75549;BME280;64133;56.002;37.208;2023-05-14T21:43:55;99834.18;;;8.55;61.44
75549;BME280;64133;56.002;37.208;2023-05-14T21:49:03;99836.83;;;8.48;61.81
75549;BME280;64133;56.002;37.208;2023-05-14T21:54:08;99832.18;;;8.39;62.18
75549;BME280;64133;56.002;37.208;2023-05-14T21:59:12;99833.12;;;8.30;62.52
75549;BME280;64133;56.002;37.208;2023-05-14T22:04:17;99834.19;;;8.21;63.01
75549;BME280;64133;56.002;37.208;2023-05-14T22:09:22;99837.00;;;8.18;63.17
75549;BME280;64133;56.002;37.208;2023-05-14T22:14:27;99838.36;;;8.11;63.36
75549;BME280;64133;56.002;37.208;2023-05-14T22:19:31;99838.37;;;8.03;63.57
75549;BME280;64133;56.002;37.208;2023-05-14T22:24:36;99838.19;;;7.99;63.75
75549;BME280;64133;56.002;37.208;2023-05-14T22:29:40;99834.18;;;7.94;64.11
75549;BME280;64133;56.002;37.208;2023-05-14T22:34:45;99839.54;;;7.85;64.46
75549;BME280;64133;56.002;37.208;2023-05-14T22:39:50;99836.08;;;7.77;64.84
75549;BME280;64133;56.002;37.208;2023-05-14T22:44:54;99838.16;;;7.72;65.04
75549;BME280;64133;56.002;37.208;2023-05-14T22:49:59;99838.98;;;7.66;65.47
75549;BME280;64133;56.002;37.208;2023-05-14T22:55:04;99840.77;;;7.65;65.52
75549;BME280;64133;56.002;37.208;2023-05-14T23:00:11;99838.91;;;7.60;65.62
75549;BME280;64133;56.002;37.208;2023-05-14T23:05:15;99846.22;;;7.55;65.85
75549;BME280;64133;56.002;37.208;2023-05-14T23:10:20;99843.05;;;7.50;65.88
75549;BME280;64133;56.002;37.208;2023-05-14T23:15:25;99844.92;;;7.41;66.15
75549;BME280;64133;56.002;37.208;2023-05-14T23:20:29;99841.72;;;7.36;66.46
75549;BME280;64133;56.002;37.208;2023-05-14T23:25:34;99840.98;;;7.34;66.63
75549;BME280;64133;56.002;37.208;2023-05-14T23:30:39;99850.16;;;7.34;66.60
75549;BME280;64133;56.002;37.208;2023-05-14T23:35:43;99854.37;;;7.29;66.67
75549;BME280;64133;56.002;37.208;2023-05-14T23:40:48;99850.72;;;7.24;66.78
75549;BME280;64133;56.002;37.208;2023-05-14T23:45:53;99850.99;;;7.20;66.94
75549;BME280;64133;56.002;37.208;2023-05-14T23:50:57;99854.09;;;7.19;67.00
75549;BME280;64133;56.002;37.208;2023-05-14T23:56:02;99854.36;;;7.15;67.04
